Time;durP1;ratioP1;P1;durP2;ratioP2;P2;SDS_P1;SDS_P2;PMS_P1;PMS_P2;Temp;Humidity;BMP_temperature;BMP_pressure;BME280_temperature;BME280_humidity;BME280_pressure;Samples;Min_cycle;Max_cycle;Signal;HPM_P1;HPM_P2
2021/08/29 00:00:16;;;;;;;6.38;3.03;;;12.70;99.90;;;;;;4976485;28;20031;-87
2021/08/29 00:02:41;;;;;;;5.47;2.72;;;12.60;99.90;;;;;;4993202;28;20031;-87
2021/08/29 00:05:08;;;;;;;5.65;2.75;;;12.60;99.90;;;;;;4976637;28;20047;-88
2021/08/29 00:07:34;;;;;;;5.78;2.95;;;12.70;99.90;;;;;;5006579;28;20081;-87
2021/08/29 00:09:59;;;;;;;4.35;2.65;;;12.70;99.90;;;;;;4995351;28;20030;-86
2021/08/29 00:12:26;;;;;;;5.63;3.13;;;12.70;99.90;;;;;;5013256;28;20025;-87
2021/08/29 00:14:52;;;;;;;5.47;2.83;;;12.70;99.90;;;;;;4999128;28;20035;-87
2021/08/29 00:17:18;;;;;;;5.57;3.00;;;12.60;99.90;;;;;;4993777;28;20030;-87
2021/08/29 00:19:44;;;;;;;4.57;2.50;;;12.70;99.90;;;;;;4990640;28;20011;-87
2021/08/29 00:22:10;;;;;;;5.47;2.60;;;12.70;99.90;;;;;;4992282;28;20061;-87
2021/08/29 00:24:35;;;;;;;5.20;2.75;;;12.70;99.90;;;;;;4982995;28;20098;-87
2021/08/29 00:27:01;;;;;;;6.60;2.75;;;12.70;99.90;;;;;;4992647;28;20046;-87
2021/08/29 00:29:27;;;;;;;7.97;2.65;;;12.70;99.90;;;;;;4975779;28;20030;-87
2021/08/29 00:31:52;;;;;;;4.10;2.28;;;12.70;99.90;;;;;;4976147;28;20039;-87
2021/08/29 00:34:21;;;;;;;6.13;2.78;;;12.70;99.90;;;;;;4963138;28;1363571;-87
2021/08/29 00:36:47;;;;;;;6.72;2.83;;;12.70;99.90;;;;;;4997018;28;20041;-87
2021/08/29 00:39:15;;;;;;;5.82;2.50;;;12.80;99.90;;;;;;5013821;28;20034;-86
2021/08/29 00:41:42;;;;;;;5.13;2.53;;;12.70;99.90;;;;;;5001128;28;20019;-86
2021/08/29 00:44:09;;;;;;;4.72;2.65;;;12.70;99.90;;;;;;4976457;28;20026;-87
2021/08/29 00:46:34;;;;;;;5.90;2.95;;;12.70;99.90;;;;;;4975937;28;20018;-86
2021/08/29 00:49:00;;;;;;;4.68;2.40;;;12.70;99.90;;;;;;4998243;28;20117;-87
2021/08/29 00:51:26;;;;;;;5.15;2.35;;;12.70;99.90;;;;;;5013615;28;20058;-87
2021/08/29 00:53:55;;;;;;;7.72;3.17;;;12.70;99.90;;;;;;5013491;28;20030;-87
2021/08/29 00:56:23;;;;;;;6.20;2.92;;;12.70;99.90;;;;;;4995427;28;20033;-86
2021/08/29 00:58:54;;;;;;;5.55;3.03;;;12.70;99.90;;;;;;4995429;28;20030;-87
2021/08/29 01:01:41;;;;;;;5.80;3.13;;;12.70;99.90;;;;;;4996186;28;20053;-86
2021/08/29 01:04:13;;;;;;;6.05;2.97;;;12.70;99.90;;;;;;4995407;28;20113;-87
2021/08/29 01:06:56;;;;;;;6.03;2.53;;;12.70;99.90;;;;;;5013186;28;20033;-87
2021/08/29 01:09:23;;;;;;;7.18;3.22;;;12.70;99.90;;;;;;5012810;28;20037;-87
2021/08/29 01:11:53;;;;;;;6.53;3.10;;;12.70;99.90;;;;;;4995934;28;20026;-86
2021/08/29 01:14:26;;;;;;;5.30;3.00;;;12.70;99.90;;;;;;4994865;28;20034;-86
2021/08/29 01:16:56;;;;;;;5.97;3.10;;;12.70;99.90;;;;;;5012746;28;20034;-87
2021/08/29 01:19:42;;;;;;;6.57;3.33;;;12.80;99.90;;;;;;4995109;28;20138;-87
2021/08/29 01:22:08;;;;;;;6.47;3.00;;;12.70;99.90;;;;;;4994745;28;20014;-87
2021/08/29 01:24:35;;;;;;;6.88;3.20;;;12.70;99.90;;;;;;4981621;28;20066;-88
2021/08/29 01:27:04;;;;;;;6.03;3.03;;;12.60;99.90;;;;;;4992557;28;20026;-87
2021/08/29 01:29:31;;;;;;;8.00;3.45;;;12.70;99.90;;;;;;4993026;28;20101;-88
2021/08/29 01:31:57;;;;;;;5.22;2.65;;;12.70;99.90;;;;;;5009805;28;20033;-87
2021/08/29 01:34:23;;;;;;;5.78;3.15;;;12.70;99.90;;;;;;4976905;28;20039;-88
2021/08/29 01:36:54;;;;;;;5.22;2.83;;;12.70;99.90;;;;;;4975472;28;20038;-88
2021/08/29 01:39:22;;;;;;;5.63;3.30;;;12.70;99.90;;;;;;4974994;28;20015;-88
2021/08/29 01:41:49;;;;;;;6.10;2.90;;;12.70;99.90;;;;;;4976773;28;20023;-86
2021/08/29 01:44:17;;;;;;;6.05;2.75;;;12.70;99.90;;;;;;4995915;28;20015;-88
2021/08/29 01:46:44;;;;;;;6.20;3.15;;;12.70;99.90;;;;;;4995479;28;20058;-89
2021/08/29 01:49:12;;;;;;;7.35;3.00;;;12.70;99.90;;;;;;4995058;28;20030;-88
2021/08/29 01:51:39;;;;;;;8.15;3.70;;;12.80;99.90;;;;;;4977485;28;20034;-87
2021/08/29 01:54:08;;;;;;;6.28;3.15;;;12.80;99.90;;;;;;4976413;28;20039;-87
2021/08/29 01:56:59;;;;;;;5.85;3.22;;;12.70;99.90;;;;;;4975606;28;20030;-87
2021/08/29 01:59:25;;;;;;;5.93;3.10;;;12.70;99.90;;;;;;4973641;28;20046;-87
2021/08/29 02:01:52;;;;;;;5.13;2.92;;;12.60;99.90;;;;;;4956803;28;20035;-88
2021/08/29 02:04:19;;;;;;;6.50;3.60;;;12.70;99.90;;;;;;4956936;28;20137;-89
2021/08/29 02:06:47;;;;;;;5.28;2.83;;;12.60;99.90;;;;;;4957634;28;20484;-88
2021/08/29 02:09:15;;;;;;;6.47;3.17;;;12.60;99.90;;;;;;4956155;28;20089;-88
2021/08/29 02:11:51;;;;;;;5.22;2.75;;;12.70;99.90;;;;;;4956989;28;20097;-88
2021/08/29 02:14:22;;;;;;;6.63;3.25;;;12.60;99.90;;;;;;4956973;28;20729;-88
2021/08/29 02:16:49;;;;;;;7.65;3.30;;;12.60;99.90;;;;;;4957680;28;20046;-89
2021/08/29 02:19:22;;;;;;;5.13;2.85;;;12.60;99.90;;;;;;4973422;28;20403;-88
2021/08/29 02:21:49;;;;;;;6.88;3.13;;;12.60;99.90;;;;;;4973885;28;20035;-88
2021/08/29 02:24:15;;;;;;;5.45;2.75;;;12.70;99.90;;;;;;4983383;28;20367;-88
2021/08/29 02:26:41;;;;;;;5.25;3.03;;;12.60;99.90;;;;;;4991569;28;20085;-88
2021/08/29 02:29:09;;;;;;;6.85;3.42;;;12.50;99.90;;;;;;4992641;28;20041;-88
2021/08/29 02:31:35;;;;;;;5.85;3.00;;;12.60;99.90;;;;;;4999595;28;20025;-88
2021/08/29 02:34:01;;;;;;;5.15;2.85;;;12.50;99.90;;;;;;4958326;28;20061;-88
2021/08/29 02:36:27;;;;;;;5.68;3.20;;;12.60;99.90;;;;;;4956938;28;20035;-89
2021/08/29 02:38:54;;;;;;;5.65;3.08;;;12.60;99.90;;;;;;4973613;28;20035;-88
2021/08/29 02:41:22;;;;;;;5.57;3.30;;;12.70;99.90;;;;;;4956584;28;20037;-88
2021/08/29 02:43:49;;;;;;;5.63;2.97;;;12.60;99.90;;;;;;4973215;28;20122;-89
2021/08/29 02:46:15;;;;;;;6.57;3.28;;;12.70;99.90;;;;;;4973388;28;20089;-89
2021/08/29 02:48:44;;;;;;;5.28;3.00;;;12.70;99.90;;;;;;4956652;28;20031;-89
2021/08/29 02:51:12;;;;;;;8.57;3.90;;;12.70;99.90;;;;;;4974383;28;20066;-88
2021/08/29 02:53:39;;;;;;;5.90;3.22;;;12.80;99.90;;;;;;4971629;28;20035;-88
2021/08/29 02:56:07;;;;;;;7.60;3.35;;;12.60;99.90;;;;;;4984674;28;20121;-88
2021/08/29 02:58:34;;;;;;;7.20;3.10;;;12.70;99.90;;;;;;4976994;28;20034;-87
2021/08/29 03:01:00;;;;;;;7.90;3.60;;;12.70;99.90;;;;;;4992714;28;20033;-88
2021/08/29 03:03:26;;;;;;;5.88;3.35;;;12.70;99.90;;;;;;5006355;28;20030;-88
2021/08/29 03:05:51;;;;;;;6.82;3.55;;;12.70;99.90;;;;;;4989679;28;20033;-88
2021/08/29 03:08:17;;;;;;;8.07;3.78;;;12.60;99.90;;;;;;4974669;28;20034;-88
2021/08/29 03:10:44;;;;;;;7.95;3.58;;;12.60;99.90;;;;;;4974946;28;20410;-88
2021/08/29 03:13:10;;;;;;;6.93;3.55;;;12.60;99.90;;;;;;4985027;28;20061;-88
2021/08/29 03:15:36;;;;;;;5.13;3.10;;;12.70;99.90;;;;;;4992854;28;20049;-88
2021/08/29 03:18:02;;;;;;;7.20;3.40;;;12.70;99.90;;;;;;4991919;28;20035;-88
2021/08/29 03:20:28;;;;;;;6.28;2.92;;;12.70;99.90;;;;;;4990624;28;20078;-88
2021/08/29 03:22:54;;;;;;;5.80;3.45;;;12.70;99.90;;;;;;4970913;28;20027;-88
2021/08/29 03:25:21;;;;;;;6.75;3.58;;;12.70;99.90;;;;;;4971276;28;20025;-88
2021/08/29 03:27:47;;;;;;;6.22;3.28;;;12.60;99.90;;;;;;4954883;28;20031;-89
2021/08/29 03:30:13;;;;;;;5.05;3.03;;;12.60;99.90;;;;;;4991932;28;20058;-88
2021/08/29 03:32:41;;;;;;;6.40;3.08;;;12.60;99.90;;;;;;4990851;28;20034;-88
2021/08/29 03:35:08;;;;;;;6.15;3.20;;;12.60;99.90;;;;;;4990671;28;20057;-88
2021/08/29 03:37:33;;;;;;;5.47;3.15;;;12.60;99.90;;;;;;4992326;28;20030;-88
2021/08/29 03:40:04;;;;;;;5.93;3.50;;;12.60;99.90;;;;;;4992796;28;20029;-87
2021/08/29 03:42:32;;;;;;;6.68;3.60;;;12.60;99.90;;;;;;4993150;28;20029;-88
2021/08/29 03:45:02;;;;;;;6.60;3.60;;;12.60;99.90;;;;;;4971635;28;20082;-88
2021/08/29 03:47:28;;;;;;;7.30;3.55;;;12.60;99.90;;;;;;4956185;28;20055;-87
2021/08/29 03:49:54;;;;;;;4.93;2.80;;;12.60;99.90;;;;;;4954991;28;20065;-88
2021/08/29 03:52:21;;;;;;;6.20;3.38;;;12.60;99.90;;;;;;4955645;28;20026;-89
2021/08/29 03:54:47;;;;;;;6.53;3.47;;;12.60;99.90;;;;;;4958245;28;20034;-88
2021/08/29 03:57:14;;;;;;;6.38;3.28;;;12.60;99.90;;;;;;4976802;28;20030;-88
2021/08/29 03:59:41;;;;;;;6.00;3.60;;;12.60;99.90;;;;;;4959264;28;20027;-87
2021/08/29 04:02:07;;;;;;;6.45;3.30;;;12.60;99.90;;;;;;4961078;28;20031;-88
2021/08/29 04:04:33;;;;;;;8.35;3.55;;;12.60;99.90;;;;;;4994500;28;20026;-88
2021/08/29 04:07:05;;;;;;;7.75;3.40;;;12.50;99.90;;;;;;4996040;28;20487;-88
2021/08/29 04:09:34;;;;;;;6.90;3.58;;;12.50;99.90;;;;;;4995344;28;20034;-88
2021/08/29 04:12:00;;;;;;;7.05;3.40;;;12.50;99.90;;;;;;4995039;28;20039;-88
2021/08/29 04:14:28;;;;;;;6.20;3.50;;;12.50;99.90;;;;;;4978221;28;20034;-88
2021/08/29 04:16:56;;;;;;;7.20;3.30;;;12.50;99.90;;;;;;4978189;28;20022;-88
2021/08/29 04:19:22;;;;;;;5.57;3.15;;;12.50;99.90;;;;;;4986849;28;20030;-89
2021/08/29 04:21:48;;;;;;;6.15;2.97;;;12.50;99.90;;;;;;4975019;28;20023;-88
2021/08/29 04:24:14;;;;;;;8.70;3.55;;;12.50;99.90;;;;;;4974632;28;20113;-88
2021/08/29 04:26:40;;;;;;;8.95;3.78;;;12.50;99.90;;;;;;4974799;28;20109;-88
2021/08/29 04:29:06;;;;;;;7.72;3.88;;;12.50;99.90;;;;;;4976171;28;20122;-88
2021/08/29 04:31:34;;;;;;;7.82;3.35;;;12.50;99.90;;;;;;4971886;28;20061;-88
2021/08/29 04:34:09;;;;;;;6.43;3.35;;;12.50;99.90;;;;;;4997195;28;20038;-88
2021/08/29 04:36:36;;;;;;;8.07;3.63;;;12.40;99.90;;;;;;4996424;28;20093;-89
2021/08/29 04:39:07;;;;;;;10.18;3.30;;;12.40;99.90;;;;;;4969225;28;20500;-88
2021/08/29 04:41:34;;;;;;;7.75;3.53;;;12.30;99.90;;;;;;4973687;28;20110;-88
2021/08/29 04:44:01;;;;;;;7.60;3.65;;;12.30;99.90;;;;;;4957590;28;20104;-89
2021/08/29 04:46:26;;;;;;;7.72;4.03;;;12.20;99.90;;;;;;4957573;28;20027;-88
2021/08/29 04:48:52;;;;;;;8.77;3.58;;;12.20;99.90;;;;;;4957778;28;20522;-88
2021/08/29 04:51:18;;;;;;;6.95;3.80;;;12.20;99.90;;;;;;4973562;28;20027;-88
2021/08/29 04:53:43;;;;;;;9.05;4.20;;;12.20;99.90;;;;;;4974432;28;20363;-88
2021/08/29 04:56:09;;;;;;;9.50;4.97;;;12.10;99.90;;;;;;4974623;28;20031;-88
2021/08/29 04:58:34;;;;;;;6.22;3.60;;;12.10;99.90;;;;;;4956813;28;20041;-87
2021/08/29 05:01:00;;;;;;;7.00;4.05;;;12.10;99.90;;;;;;4957271;28;20034;-88
2021/08/29 05:03:25;;;;;;;6.97;3.60;;;12.10;99.90;;;;;;4958529;28;20030;-88
2021/08/29 05:05:51;;;;;;;7.70;4.15;;;12.10;99.90;;;;;;4991906;28;20023;-88
2021/08/29 05:08:17;;;;;;;6.95;4.18;;;12.10;99.90;;;;;;4961745;28;20125;-88
2021/08/29 05:10:42;;;;;;;9.73;4.85;;;12.10;99.90;;;;;;4974045;28;20037;-89
2021/08/29 05:13:08;;;;;;;8.30;4.53;;;12.20;99.90;;;;;;4956921;28;20088;-88
2021/08/29 05:15:34;;;;;;;6.25;3.90;;;12.20;99.90;;;;;;4956536;28;20031;-87
2021/08/29 05:17:59;;;;;;;8.40;4.53;;;12.20;99.90;;;;;;4973777;28;20030;-87
2021/08/29 05:20:26;;;;;;;7.68;4.30;;;12.10;99.90;;;;;;4973958;28;20027;-88
2021/08/29 05:22:51;;;;;;;6.82;4.15;;;12.10;99.90;;;;;;4956222;28;20517;-88
2021/08/29 05:25:17;;;;;;;7.32;4.28;;;12.00;99.90;;;;;;4996226;28;20137;-88
2021/08/29 05:27:43;;;;;;;9.43;4.30;;;12.00;99.90;;;;;;4986711;28;20494;-87
2021/08/29 05:30:09;;;;;;;8.70;4.78;;;11.90;99.90;;;;;;5011400;28;20030;-88
2021/08/29 05:32:35;;;;;;;8.48;4.72;;;11.90;99.90;;;;;;5009505;28;20026;-87
2021/08/29 05:35:00;;;;;;;7.30;4.18;;;12.00;99.90;;;;;;5044377;22;20056;-89
2021/08/29 05:37:29;;;;;;;6.95;4.40;;;12.00;99.90;;;;;;5040414;28;20077;-88
2021/08/29 05:39:54;;;;;;;7.75;4.50;;;11.90;99.90;;;;;;5034042;28;20022;-88
2021/08/29 05:42:20;;;;;;;10.70;4.72;;;12.00;99.90;;;;;;5036409;28;20057;-88
2021/08/29 05:44:46;;;;;;;9.88;4.38;;;12.00;99.90;;;;;;5039366;28;20053;-88
2021/08/29 05:47:11;;;;;;;7.43;4.40;;;12.00;99.90;;;;;;5031715;28;20026;-88
2021/08/29 05:49:37;;;;;;;10.27;4.00;;;12.00;99.90;;;;;;5023371;28;20025;-87
2021/08/29 05:52:03;;;;;;;7.03;4.15;;;12.00;99.90;;;;;;5022353;28;20062;-87
2021/08/29 05:54:29;;;;;;;7.93;3.88;;;12.00;99.90;;;;;;5022623;28;20101;-87
2021/08/29 05:56:57;;;;;;;6.43;3.78;;;12.00;99.90;;;;;;5022658;28;20053;-88
2021/08/29 05:59:23;;;;;;;6.55;3.45;;;12.30;99.90;;;;;;5022694;28;20025;-88
2021/08/29 06:01:48;;;;;;;5.95;3.45;;;12.00;99.90;;;;;;5021579;28;20482;-88
2021/08/29 06:04:14;;;;;;;5.93;3.45;;;12.00;99.90;;;;;;5022945;28;20431;-88
2021/08/29 06:06:40;;;;;;;4.95;2.85;;;12.00;99.90;;;;;;5023332;28;20018;-87
2021/08/29 06:09:08;;;;;;;4.57;2.67;;;12.20;99.90;;;;;;5010794;28;20073;-87
2021/08/29 06:11:34;;;;;;;6.00;3.15;;;12.10;99.90;;;;;;5002547;28;20022;-87
2021/08/29 06:14:04;;;;;;;7.07;2.97;;;12.10;99.90;;;;;;5002316;28;20033;-87
2021/08/29 06:16:29;;;;;;;6.00;2.90;;;12.10;99.90;;;;;;5008653;28;20022;-88
2021/08/29 06:18:55;;;;;;;4.70;2.67;;;12.10;99.90;;;;;;5021086;28;20491;-88
2021/08/29 06:21:21;;;;;;;4.05;2.30;;;12.10;99.90;;;;;;5020492;28;20034;-88
2021/08/29 06:23:46;;;;;;;4.82;2.60;;;12.10;99.90;;;;;;5019415;28;20021;-87
2021/08/29 06:26:12;;;;;;;4.57;2.97;;;12.10;99.90;;;;;;5009804;28;20057;-86
2021/08/29 06:28:37;;;;;;;6.72;4.20;;;12.00;99.90;;;;;;4999207;28;20029;-88
2021/08/29 06:31:03;;;;;;;5.57;2.95;;;11.90;99.90;;;;;;5000847;28;20069;-87
2021/08/29 06:33:29;;;;;;;5.35;3.30;;;12.10;99.90;;;;;;5018372;28;20554;-87
2021/08/29 06:35:55;;;;;;;5.63;2.78;;;12.00;99.90;;;;;;5036014;28;20041;-87
2021/08/29 06:38:21;;;;;;;4.75;2.80;;;12.10;99.90;;;;;;5037259;28;20037;-87
2021/08/29 06:40:47;;;;;;;4.10;2.33;;;12.00;99.90;;;;;;5032949;28;20083;-88
2021/08/29 06:43:13;;;;;;;3.63;1.70;;;12.20;99.90;;;;;;5039110;28;20018;-87
2021/08/29 06:45:39;;;;;;;4.65;1.90;;;12.00;99.90;;;;;;5021692;28;20036;-87
2021/08/29 06:48:04;;;;;;;4.18;2.08;;;12.00;99.90;;;;;;5009565;28;20033;-87
2021/08/29 06:50:30;;;;;;;3.53;1.83;;;12.10;99.90;;;;;;5018940;28;20036;-88
2021/08/29 06:52:56;;;;;;;3.80;1.88;;;12.20;99.90;;;;;;5019502;28;20025;-88
2021/08/29 06:55:21;;;;;;;2.90;1.80;;;12.20;99.90;;;;;;5018612;28;20037;-87
2021/08/29 06:57:47;;;;;;;3.65;2.15;;;12.20;99.90;;;;;;5036626;28;20033;-87
2021/08/29 07:00:13;;;;;;;4.18;1.50;;;12.20;99.90;;;;;;5035849;28;20068;-87
2021/08/29 07:02:38;;;;;;;3.92;1.65;;;12.20;99.90;;;;;;5018560;28;20028;-87
2021/08/29 07:05:04;;;;;;;3.72;1.80;;;12.40;99.90;;;;;;5017867;28;20106;-88
2021/08/29 07:07:31;;;;;;;2.83;1.30;;;12.30;99.90;;;;;;5016466;28;20088;-87
2021/08/29 07:09:57;;;;;;;2.38;1.35;;;12.20;99.90;;;;;;5034430;28;20022;-87
2021/08/29 07:12:22;;;;;;;2.20;0.98;;;12.20;99.90;;;;;;5034369;28;20105;-87
2021/08/29 07:14:48;;;;;;;2.13;1.05;;;12.20;99.90;;;;;;5034679;28;20033;-87
2021/08/29 07:17:16;;;;;;;2.58;1.20;;;12.30;99.90;;;;;;5016380;28;20025;-84
2021/08/29 07:19:41;;;;;;;2.67;1.10;;;12.30;99.90;;;;;;5033140;28;20053;-85
2021/08/29 07:22:07;;;;;;;2.08;1.00;;;12.30;99.90;;;;;;5033213;28;20064;-85
2021/08/29 07:24:33;;;;;;;1.90;0.90;;;12.40;99.90;;;;;;5033350;28;20033;-86
2021/08/29 07:26:58;;;;;;;1.80;0.95;;;12.40;99.90;;;;;;5017967;28;20041;-87
2021/08/29 07:29:24;;;;;;;2.00;1.00;;;12.20;99.90;;;;;;5019296;28;20025;-86
2021/08/29 07:31:50;;;;;;;2.13;0.88;;;12.40;99.90;;;;;;5033099;28;20026;-88
2021/08/29 07:34:15;;;;;;;1.50;0.70;;;12.50;99.90;;;;;;5017986;28;20061;-88
2021/08/29 07:36:41;;;;;;;1.98;0.80;;;12.40;99.90;;;;;;5018749;28;20026;-87
2021/08/29 07:39:06;;;;;;;2.15;0.88;;;12.50;99.90;;;;;;5019150;28;20026;-87
2021/08/29 07:41:32;;;;;;;2.22;0.80;;;12.60;99.90;;;;;;5031692;28;20108;-87
2021/08/29 07:43:57;;;;;;;1.33;0.70;;;12.60;99.90;;;;;;5017691;28;20030;-87
2021/08/29 07:46:26;;;;;;;1.70;0.80;;;12.70;99.90;;;;;;5001051;28;20555;-88
2021/08/29 07:48:52;;;;;;;2.50;0.88;;;12.50;99.90;;;;;;5017444;28;20108;-87
2021/08/29 07:51:24;;;;;;;1.45;0.63;;;12.80;99.90;;;;;;5019442;28;20038;-88
2021/08/29 07:53:49;;;;;;;1.85;0.85;;;12.70;99.90;;;;;;5017411;28;20032;-87
2021/08/29 07:56:18;;;;;;;1.90;0.80;;;12.70;99.90;;;;;;5019781;28;20034;-87
2021/08/29 07:58:44;;;;;;;1.50;0.70;;;12.70;99.90;;;;;;5018739;28;20022;-87
2021/08/29 08:01:10;;;;;;;1.63;0.80;;;12.70;99.90;;;;;;5018277;28;20049;-87
2021/08/29 08:03:36;;;;;;;1.75;0.70;;;12.70;99.90;;;;;;5002401;28;20445;-88
2021/08/29 08:06:06;;;;;;;2.00;0.90;;;12.60;99.90;;;;;;5019163;28;20079;-87
2021/08/29 08:08:32;;;;;;;2.60;1.00;;;12.70;99.90;;;;;;5035438;28;20025;-86
2021/08/29 08:10:57;;;;;;;1.50;0.85;;;12.70;99.90;;;;;;5021955;28;20036;-86
2021/08/29 08:13:23;;;;;;;2.08;0.90;;;12.70;99.90;;;;;;5038332;28;20367;-86
2021/08/29 08:15:48;;;;;;;1.55;0.65;;;12.70;99.90;;;;;;5038401;28;20040;-87
2021/08/29 08:18:14;;;;;;;2.53;0.88;;;12.80;99.90;;;;;;5018981;28;20033;-87
2021/08/29 08:20:40;;;;;;;1.67;0.80;;;12.80;99.90;;;;;;5020837;28;20036;-87
2021/08/29 08:23:05;;;;;;;1.83;0.88;;;12.90;99.90;;;;;;5038028;28;20029;-87
2021/08/29 08:25:31;;;;;;;2.75;0.90;;;12.90;99.90;;;;;;5020445;28;20389;-87
2021/08/29 08:27:57;;;;;;;2.03;0.80;;;13.20;99.90;;;;;;5016688;28;20041;-87
2021/08/29 08:30:22;;;;;;;1.65;0.80;;;12.80;99.90;;;;;;5005555;28;20022;-87
2021/08/29 08:32:48;;;;;;;1.63;0.80;;;12.90;99.90;;;;;;5039477;28;20045;-87
2021/08/29 08:35:13;;;;;;;1.85;0.73;;;13.00;99.90;;;;;;5014858;28;20124;-88
2021/08/29 08:37:39;;;;;;;1.55;0.63;;;13.10;99.90;;;;;;5004706;28;20040;-87
2021/08/29 08:40:06;;;;;;;1.10;0.60;;;13.10;99.90;;;;;;5010851;28;20034;-88
2021/08/29 08:42:32;;;;;;;0.93;0.40;;;13.60;99.90;;;;;;5023967;28;20029;-88
2021/08/29 08:44:59;;;;;;;1.33;0.50;;;13.30;99.90;;;;;;5029196;28;20590;-88
2021/08/29 08:47:28;;;;;;;0.82;0.30;;;13.40;99.90;;;;;;5023919;28;20090;-87
2021/08/29 08:49:57;;;;;;;0.73;0.40;;;13.50;99.90;;;;;;5023061;28;20033;-88
2021/08/29 08:52:26;;;;;;;1.55;0.40;;;13.60;99.90;;;;;;5023289;28;20405;-88
2021/08/29 08:54:55;;;;;;;1.25;0.40;;;13.50;99.90;;;;;;5023813;28;20101;-87
2021/08/29 08:57:22;;;;;;;1.23;0.60;;;13.50;99.90;;;;;;5023619;28;20034;-88
2021/08/29 08:59:48;;;;;;;1.67;0.40;;;13.50;99.90;;;;;;5022947;28;20399;-87
2021/08/29 09:02:17;;;;;;;0.70;0.32;;;13.50;99.90;;;;;;5011606;28;20091;-88
2021/08/29 09:04:43;;;;;;;0.68;0.30;;;13.80;99.90;;;;;;5005088;28;20474;-88
2021/08/29 09:07:09;;;;;;;0.70;0.40;;;13.80;99.90;;;;;;5023189;28;20108;-88
2021/08/29 09:09:35;;;;;;;0.73;0.38;;;13.70;99.90;;;;;;5023394;28;20044;-88
2021/08/29 09:12:02;;;;;;;0.60;0.20;;;13.60;99.90;;;;;;5042717;28;20029;-88
2021/08/29 09:14:47;;;;;;;0.70;0.30;;;13.50;99.90;;;;;;5043433;28;20478;-89
2021/08/29 09:17:30;;;;;;;0.50;0.20;;;13.50;99.90;;;;;;5024782;28;20034;-88
2021/08/29 09:20:20;;;;;;;0.70;0.30;;;13.60;99.90;;;;;;5005655;28;20038;-87
2021/08/29 09:22:49;;;;;;;1.55;0.55;;;13.70;99.90;;;;;;5021674;28;20026;-89
2021/08/29 09:25:18;;;;;;;2.20;0.40;;;13.60;99.90;;;;;;5018658;28;20022;-87
2021/08/29 09:27:53;;;;;;;1.02;0.40;;;13.60;99.90;;;;;;5022013;28;20030;-89
2021/08/29 09:30:23;;;;;;;0.90;0.43;;;13.70;99.90;;;;;;5004733;28;20029;-89
2021/08/29 09:32:50;;;;;;;0.50;0.28;;;13.80;99.90;;;;;;5038483;28;20470;-90
2021/08/29 09:35:22;;;;;;;1.75;0.40;;;13.70;99.90;;;;;;5042541;28;20038;-89
2021/08/29 09:37:51;;;;;;;1.08;0.30;;;13.60;99.90;;;;;;5043307;28;20554;-89
2021/08/29 09:40:20;;;;;;;0.70;0.35;;;13.60;99.90;;;;;;5024027;28;20033;-90
2021/08/29 09:42:47;;;;;;;0.63;0.30;;;13.50;99.90;;;;;;5024616;28;20482;-88
2021/08/29 09:45:34;;;;;;;1.70;0.50;;;13.40;99.90;;;;;;5021673;28;20108;-89
2021/08/29 09:48:15;;;;;;;1.38;0.50;;;13.70;99.90;;;;;;5003518;28;20068;-89
2021/08/29 09:50:46;;;;;;;0.50;0.25;;;13.70;99.90;;;;;;5022513;28;20045;-89
2021/08/29 09:53:16;;;;;;;0.35;0.20;;;13.80;99.90;;;;;;5003706;28;20030;-88
2021/08/29 09:55:44;;;;;;;0.80;0.28;;;13.80;99.90;;;;;;5002589;28;20483;-86
2021/08/29 09:58:21;;;;;;;0.50;0.30;;;13.80;99.90;;;;;;5019629;28;20029;-88
2021/08/29 10:01:17;;;;;;;0.60;0.30;;;13.80;99.90;;;;;;5006032;28;20022;-88
2021/08/29 10:03:55;;;;;;;0.57;0.30;;;13.90;99.90;;;;;;5021440;28;20026;-88
2021/08/29 10:06:30;;;;;;;1.60;0.40;;;14.00;99.90;;;;;;5005528;28;20026;-88
2021/08/29 10:09:01;;;;;;;0.90;0.40;;;13.80;99.90;;;;;;5022422;28;20025;-87
2021/08/29 10:11:32;;;;;;;0.30;0.20;;;14.00;99.90;;;;;;5032000;28;20120;-88
2021/08/29 10:14:00;;;;;;;0.38;0.20;;;14.30;99.90;;;;;;5027357;28;21826;-88
2021/08/29 10:16:27;;;;;;;0.73;0.20;;;13.80;99.90;;;;;;5042512;28;20032;-88
2021/08/29 10:18:55;;;;;;;0.70;0.20;;;13.90;99.90;;;;;;5025818;28;20026;-89
2021/08/29 10:21:27;;;;;;;0.82;0.40;;;13.80;99.90;;;;;;5022789;28;20124;-87
2021/08/29 10:23:56;;;;;;;;;;;13.70;99.90;;;;;;5023057;28;20032;-89
2021/08/29 10:26:23;;;;;;;0.20;0.20;;;13.90;99.90;;;;;;5025070;28;19991;-89
2021/08/29 10:29:09;;;;;;;0.98;0.28;;;13.80;99.90;;;;;;5042845;28;20028;-89
2021/08/29 10:32:03;;;;;;;0.90;0.25;;;13.80;99.90;;;;;;5029453;28;20060;-89
2021/08/29 10:34:31;;;;;;;0.82;0.30;;;13.90;99.90;;;;;;5006282;28;20041;-89
2021/08/29 10:36:57;;;;;;;4.05;0.75;;;14.00;99.90;;;;;;5043286;28;20025;-89
2021/08/29 10:39:26;;;;;;;4.43;2.35;;;14.10;99.90;;;;;;5040845;28;20033;-89
2021/08/29 10:41:53;;;;;;;5.00;3.17;;;14.00;99.90;;;;;;5042362;28;20028;-89
2021/08/29 10:44:19;;;;;;;5.53;2.88;;;14.10;99.90;;;;;;5042607;28;20026;-88
2021/08/29 10:46:48;;;;;;;4.32;2.97;;;14.10;99.90;;;;;;5023844;28;20025;-89
2021/08/29 10:49:19;;;;;;;4.47;2.95;;;14.20;99.90;;;;;;5023446;28;20034;-89
2021/08/29 10:51:46;;;;;;;5.10;2.95;;;14.20;99.90;;;;;;5022065;28;20469;-89
2021/08/29 10:54:15;;;;;;;3.65;2.53;;;14.20;99.90;;;;;;5021540;28;20061;-89
2021/08/29 10:56:41;;;;;;;3.97;2.38;;;14.20;99.90;;;;;;5016402;28;20041;-89
2021/08/29 10:59:07;;;;;;;3.30;2.42;;;14.30;99.90;;;;;;5025386;28;20030;-89
2021/08/29 11:01:38;;;;;;;5.20;2.70;;;14.30;99.90;;;;;;5025527;28;20751;-89
2021/08/29 11:04:19;;;;;;;4.93;3.33;;;14.30;99.90;;;;;;5041924;28;20081;-88
2021/08/29 11:06:45;;;;;;;4.88;3.05;;;14.50;99.90;;;;;;5022225;28;20490;-89
2021/08/29 11:09:34;;;;;;;4.45;2.88;;;14.50;99.90;;;;;;5023220;28;20103;-89
2021/08/29 11:12:04;;;;;;;4.55;2.92;;;14.60;99.90;;;;;;5004270;28;20037;-90
2021/08/29 11:14:48;;;;;;;5.05;3.10;;;14.70;99.90;;;;;;5038887;28;20109;-88
2021/08/29 11:17:19;;;;;;;4.13;2.63;;;14.80;99.90;;;;;;5024911;28;20025;-89
2021/08/29 11:19:51;;;;;;;3.90;2.70;;;14.80;99.90;;;;;;5042829;28;20030;-89
2021/08/29 11:22:25;;;;;;;6.03;2.53;;;15.20;99.90;;;;;;5030541;28;20029;-88
2021/08/29 11:25:02;;;;;;;4.57;2.50;;;15.00;99.90;;;;;;5008130;28;20026;-89
2021/08/29 11:27:34;;;;;;;4.00;2.60;;;15.00;99.90;;;;;;5039931;28;20018;-90
2021/08/29 11:30:01;;;;;;;4.28;2.70;;;15.00;99.90;;;;;;5030598;28;20071;-91
2021/08/29 11:32:36;;;;;;;9.55;2.80;;;15.00;99.90;;;;;;5027572;28;20029;-90
2021/08/29 11:35:11;;;;;;;4.60;2.83;;;15.10;99.90;;;;;;5044611;22;20033;-82
2021/08/29 11:37:37;;;;;;;4.57;2.90;;;15.20;99.90;;;;;;5021612;28;20057;-82
2021/08/29 11:40:09;;;;;;;3.65;2.40;;;15.30;99.90;;;;;;5028117;28;20045;-82
2021/08/29 11:42:36;;;;;;;;;;;15.40;99.90;;;;;;5026206;28;20045;-83
2021/08/29 11:45:02;;;;;;;3.95;2.30;;;15.30;99.90;;;;;;5029999;28;19913;-83
2021/08/29 11:47:40;;;;;;;4.13;2.63;;;15.40;99.90;;;;;;5037411;28;20083;-83
2021/08/29 11:50:08;;;;;;;4.28;2.70;;;15.60;99.90;;;;;;5037695;28;20037;-83
2021/08/29 11:52:38;;;;;;;3.70;2.72;;;15.60;99.90;;;;;;5017664;28;20029;-80
2021/08/29 11:55:10;;;;;;;3.60;2.40;;;15.70;99.90;;;;;;5031143;28;20053;-83
2021/08/29 11:57:53;;;;;;;4.18;2.40;;;15.70;99.90;;;;;;5002638;28;20026;-84
2021/08/29 12:00:23;;;;;;;3.63;2.30;;;15.60;99.90;;;;;;5017510;28;20069;-82
2021/08/29 12:02:52;;;;;;;4.15;2.92;;;15.70;99.90;;;;;;5000630;28;20065;-82
2021/08/29 12:05:19;;;;;;;3.50;2.20;;;15.70;99.90;;;;;;5013789;28;20486;-84
2021/08/29 12:07:53;;;;;;;4.53;2.50;;;15.80;99.90;;;;;;5037592;28;20474;-84
2021/08/29 12:10:19;;;;;;;3.25;1.95;;;15.90;99.90;;;;;;5036899;28;20036;-83
2021/08/29 12:12:46;;;;;;;3.35;2.13;;;15.80;99.90;;;;;;5036042;28;20022;-83
2021/08/29 12:15:13;;;;;;;3.33;1.90;;;15.80;99.90;;;;;;5020349;28;20030;-83
2021/08/29 12:17:40;;;;;;;3.53;2.10;;;15.70;99.90;;;;;;5018695;28;20096;-84
2021/08/29 12:20:08;;;;;;;3.97;2.30;;;15.60;99.90;;;;;;5003214;28;20030;-82
2021/08/29 12:22:37;;;;;;;4.05;2.10;;;15.50;99.90;;;;;;5027922;28;20125;-82
2021/08/29 12:25:03;;;;;;;4.22;2.22;;;15.30;99.90;;;;;;5021554;28;20048;-83
2021/08/29 12:27:30;;;;;;;3.42;1.88;;;15.20;99.90;;;;;;5040098;28;20025;-83
2021/08/29 12:30:00;;;;;;;3.83;2.08;;;15.30;99.90;;;;;;5021529;28;20048;-82
2021/08/29 12:32:28;;;;;;;3.38;1.90;;;15.20;99.90;;;;;;5039187;28;20099;-83
2021/08/29 12:34:54;;;;;;;3.70;2.10;;;15.10;99.90;;;;;;5040504;28;20441;-83
2021/08/29 12:37:21;;;;;;;3.83;2.40;;;15.10;99.90;;;;;;5040749;28;20025;-84
2021/08/29 12:40:15;;;;;;;4.28;2.45;;;15.10;99.90;;;;;;5038753;28;20489;-83
2021/08/29 12:42:43;;;;;;;3.95;2.30;;;15.10;99.90;;;;;;5039596;28;20064;-83
2021/08/29 12:45:11;;;;;;;4.28;2.70;;;15.10;99.90;;;;;;5039757;28;20104;-83
2021/08/29 12:47:40;;;;;;;4.40;2.38;;;15.10;99.90;;;;;;5036227;28;20030;-83
2021/08/29 12:50:08;;;;;;;3.80;2.60;;;15.20;99.90;;;;;;5019668;28;20061;-83
2021/08/29 12:52:45;;;;;;;3.67;2.10;;;15.20;99.90;;;;;;5018234;28;20367;-83